Time;durP1;ratioP1;P1;durP2;ratioP2;P2;SDS_P1;SDS_P2;PMS_P1;PMS_P2;Temp;Humidity;BMP_temperature;BMP_pressure;BME280_temperature;BME280_humidity;BME280_pressure;Samples;Min_cycle;Max_cycle;Signal;HPM_P1;HPM_P2
2021/03/28 00:07:20;;;;;;;8.82;4.78;;;21.20;46.00;;;;;;20601674;28;20018;-18
2021/03/28 00:17:20;;;;;;;5.93;3.20;;;21.10;46.00;;;;;;20687341;23;20057;-22
2021/03/28 00:27:27;;;;;;;8.80;3.03;;;21.00;46.20;;;;;;20703772;28;20034;-22
2021/03/28 00:37:28;;;;;;;6.75;2.97;;;20.90;46.30;;;;;;20658391;28;20494;-23
2021/03/28 00:47:32;;;;;;;5.70;2.97;;;20.70;46.70;;;;;;20657324;28;20426;-21
2021/03/28 00:57:38;;;;;;;7.78;2.50;;;20.70;47.00;;;;;;20662707;28;20038;-23
2021/03/28 01:08:18;;;;;;;9.20;3.05;;;20.60;47.20;;;;;;20658180;28;20027;-21
2021/03/28 01:18:40;;;;;;;5.82;2.55;;;20.60;47.30;;;;;;20674297;28;20030;-20
2021/03/28 01:28:54;;;;;;;6.95;2.95;;;20.50;47.40;;;;;;20675349;28;20104;-22
2021/03/28 01:39:23;;;;;;;6.57;2.53;;;20.40;47.30;;;;;;20695903;28;20034;-23
2021/03/28 01:49:56;;;;;;;6.13;2.00;;;20.40;47.30;;;;;;20665324;28;20048;-26
2021/03/28 02:00:32;;;;;;;4.47;2.00;;;20.40;47.30;;;;;;20672601;28;20075;-22
2021/03/28 02:10:59;;;;;;;5.88;2.03;;;20.30;47.20;;;;;;20691576;28;20132;-25
2021/03/28 02:21:14;;;;;;;6.78;2.67;;;20.30;47.20;;;;;;20689698;28;20045;-25
2021/03/28 02:31:31;;;;;;;4.43;1.45;;;20.20;47.10;;;;;;20682854;28;20038;-23
2021/03/28 02:41:42;;;;;;;5.90;1.92;;;20.20;47.00;;;;;;20673628;28;20434;-26
2021/03/28 02:52:01;;;;;;;4.93;1.67;;;20.10;46.90;;;;;;20676698;28;20032;-25
2021/03/28 03:02:20;;;;;;;4.97;1.90;;;20.10;46.90;;;;;;20674304;28;20049;-24
2021/03/28 03:12:27;;;;;;;;;;;20.10;46.80;;;;;;20671361;28;20026;-23
2021/03/28 03:22:27;;;;;;;3.55;1.60;;;20.00;46.80;;;;;;20655394;28;20380;-24
2021/03/28 03:33:21;;;;;;;6.05;1.63;;;20.00;46.70;;;;;;20669806;28;20084;-26
2021/03/28 03:43:58;;;;;;;5.28;1.55;;;20.00;46.60;;;;;;20592126;28;20053;-22
2021/03/28 03:54:33;;;;;;;4.63;1.55;;;19.90;46.60;;;;;;20663354;28;20397;-22
2021/03/28 04:04:51;;;;;;;3.85;1.48;;;19.90;46.70;;;;;;20659342;28;20582;-25
2021/03/28 04:14:57;;;;;;;7.00;1.90;;;19.90;46.50;;;;;;20661397;28;20490;-25
2021/03/28 04:25:33;;;;;;;4.07;1.58;;;19.80;46.40;;;;;;20660047;28;20430;-23
2021/03/28 04:35:37;;;;;;;2.78;1.25;;;19.80;46.40;;;;;;20665052;28;20030;-23
2021/03/28 04:45:54;;;;;;;3.90;1.58;;;19.70;46.20;;;;;;20661723;28;20042;-23
2021/03/28 04:56:32;;;;;;;2.97;1.08;;;19.70;46.10;;;;;;20641792;28;20038;-23
2021/03/28 05:06:53;;;;;;;4.57;1.42;;;19.70;46.10;;;;;;20658108;28;20046;-23
2021/03/28 05:17:06;;;;;;;3.60;1.45;;;19.70;46.00;;;;;;20692344;28;20085;-24
2021/03/28 05:27:10;;;;;;;5.80;1.52;;;19.80;46.00;;;;;;20697761;28;20034;-25
2021/03/28 05:37:25;;;;;;;3.20;1.30;;;19.60;45.90;;;;;;20695010;28;20117;-24
2021/03/28 05:48:10;;;;;;;4.50;1.02;;;19.60;45.80;;;;;;20687842;28;20056;-23
2021/03/28 05:58:27;;;;;;;7.18;1.20;;;19.60;45.70;;;;;;20691985;28;20025;-24
2021/03/28 06:08:46;;;;;;;5.75;2.03;;;19.50;45.50;;;;;;20683514;28;20054;-24
2021/03/28 06:19:14;;;;;;;3.50;1.33;;;19.50;45.40;;;;;;20747876;23;20069;-21
2021/03/28 06:30:00;;;;;;;4.10;0.95;;;20.00;44.40;;;;;;20729848;28;20038;-21
2021/03/28 06:40:38;;;;;;;6.18;1.60;;;20.70;42.80;;;;;;20701194;28;20405;-21
2021/03/28 06:50:59;;;;;;;3.22;0.93;;;21.50;41.00;;;;;;20642903;28;20503;-22
2021/03/28 07:01:22;;;;;;;3.45;0.85;;;22.40;39.50;;;;;;20660780;28;20470;-22
2021/03/28 07:11:54;;;;;;;2.15;0.80;;;22.90;38.10;;;;;;20681866;28;20090;-22
2021/03/28 07:22:25;;;;;;;3.58;0.73;;;23.50;36.80;;;;;;20658902;28;20046;-18
2021/03/28 07:33:03;;;;;;;3.83;1.00;;;23.70;36.10;;;;;;20675841;28;20026;-21
2021/03/28 07:43:41;;;;;;;3.47;0.98;;;23.50;36.10;;;;;;20634317;28;20031;-21
2021/03/28 07:54:14;;;;;;;6.40;0.93;;;23.40;36.70;;;;;;20677572;28;20045;-21
2021/03/28 08:04:49;;;;;;;9.05;1.63;;;23.20;36.90;;;;;;20658873;28;20038;-20
2021/03/28 08:14:49;;;;;;;5.15;1.33;;;23.00;37.60;;;;;;20651957;28;20026;-19
2021/03/28 08:25:18;;;;;;;7.80;1.20;;;22.70;38.60;;;;;;20656098;28;20026;-21
2021/03/28 08:35:44;;;;;;;6.83;2.23;;;22.50;39.20;;;;;;20668580;28;20031;-21
2021/03/28 08:46:10;;;;;;;12.30;3.00;;;22.50;39.10;;;;;;20604900;28;20451;-21
2021/03/28 08:56:47;;;;;;;21.27;3.42;;;22.70;38.70;;;;;;20670717;28;20120;-20
2021/03/28 09:07:05;;;;;;;16.55;3.85;;;22.70;38.20;;;;;;20627526;28;20173;-21
2021/03/28 09:17:13;;;;;;;18.23;4.50;;;22.50;39.20;;;;;;20656748;28;20037;-20
2021/03/28 09:27:44;;;;;;;13.70;3.60;;;22.80;39.90;;;;;;20665404;28;20034;-21
2021/03/28 09:38:08;;;;;;;14.25;3.35;;;23.00;40.40;;;;;;20657688;28;20023;-19
2021/03/28 09:48:27;;;;;;;13.75;4.53;;;22.80;40.70;;;;;;20656950;28;20376;-21
2021/03/28 09:58:39;;;;;;;13.50;3.30;;;22.60;41.20;;;;;;20661571;28;20069;-21
2021/03/28 10:08:47;;;;;;;9.93;2.60;;;22.40;41.70;;;;;;20672832;28;20058;-20
2021/03/28 10:18:53;;;;;;;18.70;3.35;;;22.40;42.10;;;;;;20671600;28;20085;-19
2021/03/28 10:29:30;;;;;;;12.65;4.18;;;22.30;42.30;;;;;;20666655;28;20042;-21
2021/03/28 10:40:06;;;;;;;13.27;2.88;;;22.30;42.40;;;;;;20666845;28;20438;-20
2021/03/28 10:50:41;;;;;;;11.60;2.50;;;22.20;42.50;;;;;;20665217;28;20058;-21
2021/03/28 11:01:12;;;;;;;11.77;2.58;;;21.90;42.60;;;;;;20663905;28;20042;-21
2021/03/28 11:11:53;;;;;;;11.30;2.70;;;22.00;43.00;;;;;;20659381;28;20022;-19
2021/03/28 11:22:22;;;;;;;10.77;2.55;;;21.90;43.20;;;;;;20662303;28;20117;-19
2021/03/28 11:32:35;;;;;;;34.10;4.88;;;22.00;43.70;;;;;;20411872;29;20044;-20
2021/03/28 11:42:36;;;;;;;28.85;3.40;;;21.90;44.40;;;;;;20412122;29;20178;-20
2021/03/28 11:52:58;;;;;;;23.52;3.30;;;21.90;44.50;;;;;;20404673;29;20046;-20
2021/03/28 12:03:20;;;;;;;15.50;2.50;;;22.00;44.50;;;;;;20491286;28;20046;-22
2021/03/28 12:13:35;;;;;;;20.15;3.67;;;21.80;43.50;;;;;;20679685;28;20036;-19
2021/03/28 12:23:36;;;;;;;21.80;3.17;;;21.80;42.70;;;;;;20763352;23;20053;-21
2021/03/28 12:34:18;;;;;;;11.50;2.53;;;21.80;42.50;;;;;;20749135;28;20657;-22
2021/03/28 12:44:28;;;;;;;10.32;2.20;;;21.80;42.30;;;;;;20721113;28;20034;-21
2021/03/28 12:54:34;;;;;;;14.45;3.28;;;21.80;42.10;;;;;;20739898;28;20030;-19
2021/03/28 13:04:37;;;;;;;9.27;2.10;;;21.90;42.70;;;;;;20739210;28;20041;-20
2021/03/28 13:14:37;;;;;;;6.70;1.48;;;22.00;43.00;;;;;;20737336;28;20064;-24
2021/03/28 13:24:38;;;;;;;10.43;2.58;;;22.10;43.20;;;;;;20735508;28;20026;-23
2021/03/28 13:34:53;;;;;;;10.07;2.22;;;22.20;43.40;;;;;;20746196;28;20452;-22
2021/03/28 13:44:57;;;;;;;9.98;3.10;;;22.30;43.50;;;;;;20753489;28;20034;-20
2021/03/28 13:55:12;;;;;;;9.73;1.63;;;22.30;43.70;;;;;;20749395;28;20495;-23
2021/03/28 14:05:17;;;;;;;8.55;3.00;;;22.30;43.70;;;;;;20746827;28;20129;-23
2021/03/28 14:15:20;;;;;;;13.73;1.80;;;22.30;43.90;;;;;;20749858;28;20030;-24
2021/03/28 14:26:06;;;;;;;10.48;1.90;;;22.20;44.00;;;;;;20751254;28;20040;-21
2021/03/28 14:36:21;;;;;;;9.00;1.67;;;22.30;44.10;;;;;;20736176;28;20037;-21
2021/03/28 14:46:25;;;;;;;6.53;1.42;;;22.20;43.90;;;;;;20755382;28;20056;-20
2021/03/28 14:56:39;;;;;;;7.32;2.35;;;22.20;44.20;;;;;;20718930;28;20084;-23
2021/03/28 15:07:24;;;;;;;9.65;2.50;;;22.20;44.00;;;;;;20731688;28;20040;-21
2021/03/28 15:17:48;;;;;;;12.63;2.10;;;22.20;44.40;;;;;;20755699;28;20463;-21
2021/03/28 15:28:00;;;;;;;8.27;2.35;;;22.20;44.20;;;;;;20731673;28;20022;-20
2021/03/28 15:38:07;;;;;;;9.02;2.20;;;22.20;44.70;;;;;;20763999;28;20402;-22
2021/03/28 15:48:22;;;;;;;10.70;3.05;;;22.20;44.20;;;;;;20739849;28;20422;-25
2021/03/28 15:58:45;;;;;;;12.82;2.38;;;22.40;44.40;;;;;;20745886;28;20437;-21
2021/03/28 16:09:08;;;;;;;10.63;2.22;;;22.20;44.20;;;;;;20765833;28;20030;-21
2021/03/28 16:19:30;;;;;;;17.17;3.22;;;22.00;43.50;;;;;;20728895;28;20042;-25
2021/03/28 16:29:42;;;;;;;8.32;2.13;;;22.10;42.20;;;;;;20777500;28;20037;-23
2021/03/28 16:39:43;;;;;;;6.25;1.65;;;22.10;41.50;;;;;;20758116;28;20055;-24
2021/03/28 16:50:10;;;;;;;10.50;2.15;;;21.90;41.00;;;;;;20772776;28;20037;-22
2021/03/28 17:00:16;;;;;;;14.40;2.22;;;21.80;40.60;;;;;;20770695;28;20087;-21
2021/03/28 17:10:41;;;;;;;21.17;4.25;;;22.10;40.60;;;;;;20759206;28;20044;-23
2021/03/28 17:20:48;;;;;;;23.90;4.15;;;22.20;41.60;;;;;;20751353;28;20112;-25
2021/03/28 17:31:16;;;;;;;18.50;4.63;;;22.30;42.30;;;;;;20733602;28;20491;-23
2021/03/28 17:41:49;;;;;;;10.73;3.40;;;22.30;42.20;;;;;;20750487;28;20021;-21
2021/03/28 17:51:50;;;;;;;22.13;4.68;;;22.70;44.00;;;;;;20751138;28;20035;-23
2021/03/28 18:01:51;;;;;;;23.50;6.70;;;22.80;47.00;;;;;;20749486;28;20038;-18
2021/03/28 18:11:54;;;;;;;16.88;3.35;;;22.80;47.30;;;;;;20739887;28;20064;-25
2021/03/28 18:21:59;;;;;;;18.73;3.28;;;22.70;47.30;;;;;;20749157;28;20554;-22
2021/03/28 18:32:05;;;;;;;16.13;3.50;;;22.60;47.20;;;;;;20756428;28;20034;-23
2021/03/28 18:42:10;;;;;;;10.05;2.95;;;22.40;47.30;;;;;;20766121;28;20033;-22
2021/03/28 18:53:03;;;;;;;8.32;2.53;;;22.30;47.50;;;;;;20770963;28;20486;-20
2021/03/28 19:03:35;;;;;;;16.83;3.90;;;22.10;47.60;;;;;;20679995;28;20038;-20
2021/03/28 19:13:35;;;;;;;21.17;3.13;;;22.10;47.40;;;;;;20678562;28;20057;-18
2021/03/28 19:23:42;;;;;;;15.10;2.45;;;21.90;48.00;;;;;;20683951;28;20054;-20
2021/03/28 19:33:43;;;;;;;16.13;2.88;;;21.80;48.10;;;;;;20702524;28;20410;-21
2021/03/28 19:44:09;;;;;;;14.82;3.53;;;21.70;48.50;;;;;;20736121;28;20524;-18
2021/03/28 19:54:10;;;;;;;13.75;2.83;;;21.80;48.60;;;;;;20742415;28;20459;-20
2021/03/28 20:04:12;;;;;;;15.73;3.20;;;21.80;47.90;;;;;;20741716;28;20076;-19
2021/03/28 20:14:15;;;;;;;22.98;3.45;;;22.00;48.30;;;;;;20741418;28;20615;-25
2021/03/28 20:24:20;;;;;;;11.05;2.40;;;22.40;48.30;;;;;;20738053;28;20524;-21
2021/03/28 20:34:30;;;;;;;11.50;1.98;;;23.20;47.80;;;;;;20739875;28;20108;-22
2021/03/28 20:44:31;;;;;;;11.07;1.65;;;23.90;47.20;;;;;;20737092;28;20038;-23
2021/03/28 20:54:37;;;;;;;7.45;1.55;;;24.50;46.60;;;;;;20698519;28;20054;-25
2021/03/28 21:04:40;;;;;;;10.63;1.60;;;24.40;47.40;;;;;;20750035;28;20032;-25
2021/03/28 21:14:45;;;;;;;8.65;2.13;;;24.30;47.90;;;;;;20764683;28;20099;-21
2021/03/28 21:24:47;;;;;;;8.05;1.73;;;24.00;48.50;;;;;;20701711;28;20034;-20
2021/03/28 21:34:52;;;;;;;8.13;1.95;;;23.90;48.90;;;;;;20713030;28;20081;-19
2021/03/28 21:45:04;;;;;;;5.30;2.00;;;23.60;49.50;;;;;;20738292;28;20041;-24
2021/03/28 21:55:09;;;;;;;6.18;1.42;;;23.50;49.90;;;;;;20732085;28;20038;-25
2021/03/28 22:05:19;;;;;;;7.45;1.75;;;23.40;50.00;;;;;;20769451;28;20040;-23
2021/03/28 22:15:23;;;;;;;3.90;1.00;;;23.00;49.20;;;;;;20712029;28;20057;-20
2021/03/28 22:25:24;;;;;;;6.63;1.13;;;23.00;49.20;;;;;;20711637;28;20034;-20
2021/03/28 22:35:28;;;;;;;9.13;1.50;;;22.70;49.50;;;;;;20708234;28;20123;-20
2021/03/28 22:45:30;;;;;;;5.80;1.55;;;22.60;49.60;;;;;;20706281;28;20022;-21
2021/03/28 22:55:33;;;;;;;4.60;1.13;;;22.40;50.00;;;;;;20704545;28;20060;-20
2021/03/28 23:05:34;;;;;;;7.32;1.00;;;22.10;50.20;;;;;;20744172;28;20125;-20
2021/03/28 23:15:37;;;;;;;3.55;1.70;;;22.00;50.40;;;;;;20723541;28;20057;-18
2021/03/28 23:25:43;;;;;;;4.60;1.25;;;21.80;50.60;;;;;;20724144;28;20112;-24
2021/03/28 23:35:44;;;;;;;4.57;1.05;;;21.70;50.40;;;;;;20713093;28;20053;-21
2021/03/28 23:45:46;;;;;;;3.13;1.40;;;21.60;51.10;;;;;;20735799;28;20378;-24
2021/03/28 23:55:50;;;;;;;3.67;1.30;;;21.50;50.90;;;;;;20760025;28;20022;-21
